Time;durP1;ratioP1;P1;durP2;ratioP2;P2;SDS_P1;SDS_P2;PMS_P1;PMS_P2;Temp;Humidity;BMP_temperature;BMP_pressure;BME280_temperature;BME280_humidity;BME280_pressure;Samples;Min_cycle;Max_cycle;Signal;HPM_P1;HPM_P2
2023/09/10 00:01:40;;;;;;;12.48;11.27;;;;;;;;;;5037443;28;20520;-82
2023/09/10 00:04:08;;;;;;;15.18;11.27;;;;;;;;;;5019948;28;20061;-83
2023/09/10 00:06:36;;;;;;;12.75;11.43;;;;;;;;;;5020478;28;20060;-83
2023/09/10 00:09:03;;;;;;;16.92;11.93;;;;;;;;;;5016547;28;20057;-82
2023/09/10 00:11:30;;;;;;;12.50;10.80;;;;;;;;;;5015798;28;20054;-83
2023/09/10 00:13:58;;;;;;;14.45;11.00;;;;;;;;;;5044444;28;20042;-84
2023/09/10 00:16:25;;;;;;;12.40;10.68;;;;;;;;;;5027069;28;20527;-84
2023/09/10 00:18:52;;;;;;;13.35;10.77;;;;;;;;;;5043423;28;20106;-84
2023/09/10 00:21:19;;;;;;;11.88;10.48;;;;;;;;;;5025216;28;20470;-85
2023/09/10 00:23:46;;;;;;;11.95;10.73;;;;;;;;;;5025144;28;20057;-83
2023/09/10 00:26:14;;;;;;;12.38;11.15;;;;;;;;;;5023901;28;20061;-83
2023/09/10 00:28:41;;;;;;;12.27;10.98;;;;;;;;;;5024413;28;20087;-82
2023/09/10 00:31:08;;;;;;;12.18;10.95;;;;;;;;;;5023604;28;20052;-84
2023/09/10 00:33:36;;;;;;;12.38;11.15;;;;;;;;;;5023626;28;20423;-84
2023/09/10 00:36:03;;;;;;;15.05;12.23;;;;;;;;;;5023804;28;20045;-84
2023/09/10 00:38:30;;;;;;;12.13;10.93;;;;;;;;;;5041162;28;20050;-84
2023/09/10 00:40:57;;;;;;;13.45;11.82;;;;;;;;;;5022926;28;20056;-83
2023/09/10 00:43:25;;;;;;;11.93;10.68;;;;;;;;;;5022091;28;20068;-84
2023/09/10 00:45:53;;;;;;;12.25;11.05;;;;;;;;;;5021951;28;20111;-84
2023/09/10 00:48:20;;;;;;;14.70;11.07;;;;;;;;;;5040084;28;20076;-83
2023/09/10 00:50:47;;;;;;;11.88;10.68;;;;;;;;;;5021547;28;20046;-83
2023/09/10 00:53:15;;;;;;;11.98;10.82;;;;;;;;;;5031303;28;20041;-84
2023/09/10 00:55:42;;;;;;;12.90;10.48;;;;;;;;;;5022639;28;20104;-83
2023/09/10 00:58:09;;;;;;;11.93;10.65;;;;;;;;;;5023714;28;20056;-84
2023/09/10 01:00:37;;;;;;;13.85;10.40;;;;;;;;;;5023667;28;20100;-84
2023/09/10 01:03:05;;;;;;;12.65;10.85;;;;;;;;;;5041071;28;20484;-83
2023/09/10 01:05:34;;;;;;;17.25;11.82;;;;;;;;;;5022694;28;20054;-83
2023/09/10 01:08:03;;;;;;;12.75;11.45;;;;;;;;;;5023223;28;20107;-84
2023/09/10 01:10:38;;;;;;;12.95;11.52;;;;;;;;;;5022438;28;20575;-83
2023/09/10 01:13:09;;;;;;;12.70;11.20;;;;;;;;;;5021734;28;20099;-84
2023/09/10 01:15:46;;;;;;;11.98;10.75;;;;;;;;;;5022512;28;20049;-83
2023/09/10 01:18:21;;;;;;;12.80;10.43;;;;;;;;;;5022474;28;20072;-82
2023/09/10 01:20:57;;;;;;;11.80;10.68;;;;;;;;;;5021472;28;20485;-83
2023/09/10 01:23:31;;;;;;;13.20;11.80;;;;;;;;;;5038042;28;20416;-83
2023/09/10 01:25:59;;;;;;;12.57;11.10;;;;;;;;;;5017106;28;20132;-82
2023/09/10 01:28:26;;;;;;;11.80;10.65;;;;;;;;;;5017335;28;20419;-83
2023/09/10 01:30:54;;;;;;;12.98;11.60;;;;;;;;;;5034924;28;20046;-82
2023/09/10 01:33:30;;;;;;;11.82;10.60;;;;;;;;;;5017060;28;20056;-82
2023/09/10 01:36:18;;;;;;;14.45;11.38;;;;;;;;;;5017436;28;20049;-82
2023/09/10 01:38:51;;;;;;;14.98;10.77;;;;;;;;;;5007616;28;20053;-83
2023/09/10 01:41:20;;;;;;;12.63;11.32;;;;;;;;;;5017286;28;20041;-82
2023/09/10 01:43:47;;;;;;;14.63;11.25;;;;;;;;;;5017182;28;20470;-82
2023/09/10 01:46:16;;;;;;;13.48;10.98;;;;;;;;;;5034925;28;20068;-83
2023/09/10 01:48:43;;;;;;;14.23;11.52;;;;;;;;;;5017160;28;20576;-83
2023/09/10 01:51:11;;;;;;;13.18;11.88;;;;;;;;;;5017401;28;20419;-83
2023/09/10 01:53:38;;;;;;;14.40;11.93;;;;;;;;;;5016882;28;20057;-82
2023/09/10 01:56:05;;;;;;;14.10;11.77;;;;;;;;;;5016916;28;20508;-82
2023/09/10 01:58:33;;;;;;;15.18;12.55;;;;;;;;;;5016940;28;20045;-83
2023/09/10 02:01:00;;;;;;;14.27;11.52;;;;;;;;;;5034597;28;20073;-83
2023/09/10 02:03:27;;;;;;;14.75;11.88;;;;;;;;;;5017353;28;20069;-84
2023/09/10 02:05:57;;;;;;;13.02;11.25;;;;;;;;;;5018068;28;20049;-83
2023/09/10 02:08:25;;;;;;;14.25;11.15;;;;;;;;;;5017975;28;20570;-83
2023/09/10 02:10:52;;;;;;;15.35;11.45;;;;;;;;;;5016796;28;20048;-83
2023/09/10 02:13:20;;;;;;;13.57;10.88;;;;;;;;;;5016893;28;20129;-83
2023/09/10 02:15:47;;;;;;;13.43;10.70;;;;;;;;;;5017546;28;20103;-84
2023/09/10 02:18:15;;;;;;;14.25;11.32;;;;;;;;;;5034881;28;20049;-83
2023/09/10 02:20:42;;;;;;;13.40;12.05;;;;;;;;;;5016642;28;20073;-83
2023/09/10 02:23:10;;;;;;;14.02;12.52;;;;;;;;;;5017187;28;20045;-83
2023/09/10 02:25:37;;;;;;;13.40;12.00;;;;;;;;;;5017169;28;20088;-82
2023/09/10 02:28:06;;;;;;;15.10;11.32;;;;;;;;;;5016994;28;20052;-83
2023/09/10 02:30:33;;;;;;;12.25;10.25;;;;;;;;;;5016592;28;20056;-82
2023/09/10 02:33:01;;;;;;;13.20;11.77;;;;;;;;;;5016881;28;20060;-83
2023/09/10 02:35:28;;;;;;;15.70;12.45;;;;;;;;;;5015895;28;20096;-82
2023/09/10 02:37:55;;;;;;;16.13;13.13;;;;;;;;;;5016637;28;20064;-82
2023/09/10 02:40:23;;;;;;;15.25;12.43;;;;;;;;;;5033922;28;20045;-83
2023/09/10 02:42:50;;;;;;;16.42;12.75;;;;;;;;;;5015904;28;20049;-82
2023/09/10 02:45:18;;;;;;;15.80;11.05;;;;;;;;;;5016201;28;20156;-83
2023/09/10 02:47:45;;;;;;;16.15;12.30;;;;;;;;;;5016233;28;20053;-83
2023/09/10 02:50:13;;;;;;;17.65;12.48;;;;;;;;;;5015950;28;20052;-82
2023/09/10 02:52:40;;;;;;;14.75;12.18;;;;;;;;;;5042248;28;20057;-84
2023/09/10 02:55:08;;;;;;;18.33;13.52;;;;;;;;;;5021804;28;20083;-84
2023/09/10 02:57:36;;;;;;;18.40;13.73;;;;;;;;;;5021002;28;20045;-83
2023/09/10 03:03:55;;;;;;;14.75;13.05;;;;;;;;;;5033603;28;20427;-82
2023/09/10 03:06:22;;;;;;;15.27;13.48;;;;;;;;;;5014174;28;20053;-83
2023/09/10 03:08:49;;;;;;;15.05;12.65;;;;;;;;;;5032834;28;20444;-82
2023/09/10 03:11:17;;;;;;;15.13;13.35;;;;;;;;;;5015285;28;20171;-84
2023/09/10 03:13:44;;;;;;;16.48;14.60;;;;;;;;;;5032936;28;20070;-83
2023/09/10 03:16:11;;;;;;;15.48;13.35;;;;;;;;;;5033170;28;20047;-83
2023/09/10 03:18:38;;;;;;;13.88;12.50;;;;;;;;;;5016502;28;20493;-83
2023/09/10 03:21:06;;;;;;;13.98;12.57;;;;;;;;;;5036510;28;20049;-83
2023/09/10 03:23:33;;;;;;;14.73;12.93;;;;;;;;;;5035230;28;20095;-83
2023/09/10 03:26:01;;;;;;;14.35;12.85;;;;;;;;;;5035877;28;20057;-83
2023/09/10 03:28:29;;;;;;;14.68;13.10;;;;;;;;;;5035893;28;20103;-83
2023/09/10 03:30:57;;;;;;;13.77;12.32;;;;;;;;;;5017926;28;20049;-84
2023/09/10 03:33:24;;;;;;;15.30;12.27;;;;;;;;;;5017374;28;20054;-83
2023/09/10 03:35:52;;;;;;;13.85;12.45;;;;;;;;;;5017360;28;20045;-83
2023/09/10 03:38:19;;;;;;;14.73;12.70;;;;;;;;;;5017140;28;20496;-83
2023/09/10 03:40:46;;;;;;;16.00;12.35;;;;;;;;;;5017361;28;20057;-83
2023/09/10 03:43:14;;;;;;;13.75;12.15;;;;;;;;;;5071649;22;20047;-81
2023/09/10 03:45:41;;;;;;;13.45;12.05;;;;;;;;;;5057064;28;20466;-80
2023/09/10 03:48:09;;;;;;;14.45;12.95;;;;;;;;;;5061025;28;20053;-81
2023/09/10 03:50:36;;;;;;;14.75;13.10;;;;;;;;;;5043474;28;20063;-80
2023/09/10 03:53:03;;;;;;;14.80;11.73;;;;;;;;;;5060776;28;20056;-80
2023/09/10 03:55:31;;;;;;;13.60;11.93;;;;;;;;;;5060655;28;20056;-81
2023/09/10 03:57:58;;;;;;;13.70;11.82;;;;;;;;;;5060883;28;20075;-80
2023/09/10 04:00:25;;;;;;;13.13;11.80;;;;;;;;;;5043040;28;20057;-80
2023/09/10 04:02:53;;;;;;;14.10;11.88;;;;;;;;;;5060963;28;20053;-81
2023/09/10 04:05:20;;;;;;;14.10;12.65;;;;;;;;;;5042683;28;20048;-80
2023/09/10 04:07:47;;;;;;;13.48;12.18;;;;;;;;;;5060962;28;20099;-81
2023/09/10 04:10:15;;;;;;;14.10;12.02;;;;;;;;;;5060645;28;20048;-80
2023/09/10 04:12:42;;;;;;;14.85;12.85;;;;;;;;;;5060366;28;20052;-80
2023/09/10 04:15:09;;;;;;;14.40;12.90;;;;;;;;;;5042091;28;20549;-81
2023/09/10 04:17:37;;;;;;;13.90;12.32;;;;;;;;;;5042409;28;20045;-80
2023/09/10 04:20:09;;;;;;;14.38;12.88;;;;;;;;;;5060279;28;20073;-80
2023/09/10 04:22:37;;;;;;;13.40;12.07;;;;;;;;;;5041695;28;20052;-80
2023/09/10 04:25:04;;;;;;;17.23;11.65;;;;;;;;;;5042012;28;20052;-81
2023/09/10 04:27:31;;;;;;;15.45;12.50;;;;;;;;;;5059741;28;20397;-81
2023/09/10 04:29:59;;;;;;;16.17;11.88;;;;;;;;;;5060009;28;20060;-81
2023/09/10 04:32:26;;;;;;;14.95;12.52;;;;;;;;;;5042136;28;20469;-80
2023/09/10 04:34:53;;;;;;;14.40;12.90;;;;;;;;;;5042470;28;20454;-80
2023/09/10 04:37:21;;;;;;;14.35;12.02;;;;;;;;;;5042150;28;20140;-80
2023/09/10 04:39:48;;;;;;;12.90;11.52;;;;;;;;;;5059723;28;20095;-81
2023/09/10 04:42:15;;;;;;;12.68;11.38;;;;;;;;;;5042104;28;20049;-80
2023/09/10 04:44:42;;;;;;;13.20;11.27;;;;;;;;;;5059591;28;20056;-80
2023/09/10 04:47:09;;;;;;;16.60;13.77;;;;;;;;;;5059340;28;20106;-81
2023/09/10 04:49:37;;;;;;;14.85;13.30;;;;;;;;;;5041659;28;20092;-80
2023/09/10 04:52:04;;;;;;;13.38;12.07;;;;;;;;;;5041857;28;20136;-81
2023/09/10 04:54:31;;;;;;;15.10;13.10;;;;;;;;;;5041479;28;20048;-81
2023/09/10 04:56:58;;;;;;;17.65;14.50;;;;;;;;;;5040998;28;20119;-80
2023/09/10 04:59:27;;;;;;;17.10;14.40;;;;;;;;;;5040653;28;20045;-79
2023/09/10 05:01:54;;;;;;;15.13;13.27;;;;;;;;;;5041477;28;20064;-80
2023/09/10 05:04:21;;;;;;;14.88;13.38;;;;;;;;;;5060324;28;20483;-80
2023/09/10 05:06:49;;;;;;;18.58;14.32;;;;;;;;;;5042367;28;20045;-81
2023/09/10 05:09:16;;;;;;;15.65;13.95;;;;;;;;;;5059665;28;20106;-81
2023/09/10 05:11:43;;;;;;;19.10;15.82;;;;;;;;;;5040620;28;20045;-79
2023/09/10 05:14:10;;;;;;;19.65;15.23;;;;;;;;;;5056914;28;20099;-80
2023/09/10 05:16:37;;;;;;;17.13;13.38;;;;;;;;;;5056071;28;20045;-80
2023/09/10 05:19:06;;;;;;;16.73;14.95;;;;;;;;;;5038738;28;20041;-80
2023/09/10 05:21:33;;;;;;;17.67;15.40;;;;;;;;;;5039028;28;20412;-80
2023/09/10 05:24:00;;;;;;;17.65;14.25;;;;;;;;;;5056637;28;20053;-80
2023/09/10 05:26:27;;;;;;;18.40;15.30;;;;;;;;;;5056490;28;20103;-81
2023/09/10 05:28:55;;;;;;;16.13;13.82;;;;;;;;;;5057166;28;20079;-80
2023/09/10 05:31:22;;;;;;;17.75;15.35;;;;;;;;;;5038458;28;20401;-80
2023/09/10 05:33:50;;;;;;;15.32;13.60;;;;;;;;;;5039618;28;20048;-80
2023/09/10 05:36:17;;;;;;;18.25;13.57;;;;;;;;;;5038842;28;20069;-80
2023/09/10 05:38:45;;;;;;;18.80;14.60;;;;;;;;;;5057051;28;20088;-80
2023/09/10 05:41:12;;;;;;;15.95;14.35;;;;;;;;;;5039299;28;20048;-79
2023/09/10 05:43:39;;;;;;;18.77;16.33;;;;;;;;;;5058195;28;20049;-80
2023/09/10 05:46:07;;;;;;;19.05;17.05;;;;;;;;;;5042072;28;20554;-80
2023/09/10 05:48:34;;;;;;;25.35;21.05;;;;;;;;;;5040177;28;20056;-80
2023/09/10 05:51:01;;;;;;;24.33;21.77;;;;;;;;;;5039888;28;20063;-80
2023/09/10 05:53:28;;;;;;;23.73;21.02;;;;;;;;;;5057840;28;20079;-80
2023/09/10 05:55:56;;;;;;;15.32;13.90;;;;;;;;;;5041279;28;20099;-80
2023/09/10 05:58:24;;;;;;;12.35;10.38;;;;;;;;;;5040335;28;20128;-80
2023/09/10 06:00:54;;;;;;;11.02;9.27;;;;;;;;;;5058219;28;20102;-80
2023/09/10 06:03:21;;;;;;;9.52;7.93;;;;;;;;;;5039880;28;20095;-80
2023/09/10 06:05:49;;;;;;;8.57;7.57;;;;;;;;;;5039320;28;20067;-81
2023/09/10 06:08:16;;;;;;;8.15;7.35;;;;;;;;;;5039631;28;20049;-80
2023/09/10 06:10:43;;;;;;;9.45;7.10;;;;;;;;;;5056639;28;20057;-80
2023/09/10 06:13:11;;;;;;;8.55;7.18;;;;;;;;;;5057237;28;20095;-80
2023/09/10 06:15:39;;;;;;;11.30;7.82;;;;;;;;;;5057798;28;20500;-80
2023/09/10 06:18:06;;;;;;;8.88;7.70;;;;;;;;;;5039807;28;20091;-80
2023/09/10 06:20:34;;;;;;;8.80;7.38;;;;;;;;;;5039138;28;20100;-80
2023/09/10 06:23:01;;;;;;;9.27;8.27;;;;;;;;;;5038892;28;20045;-80
2023/09/10 06:25:29;;;;;;;13.10;7.43;;;;;;;;;;5039899;28;20063;-80
2023/09/10 06:27:56;;;;;;;8.98;7.95;;;;;;;;;;5057336;28;20053;-80
2023/09/10 06:30:23;;;;;;;13.23;7.22;;;;;;;;;;5058113;28;20053;-80
2023/09/10 06:32:51;;;;;;;8.43;7.55;;;;;;;;;;5039979;28;20052;-79
2023/09/10 06:35:18;;;;;;;8.50;7.25;;;;;;;;;;5039724;28;20120;-81
2023/09/10 06:37:48;;;;;;;8.23;7.43;;;;;;;;;;5039023;28;20052;-80
2023/09/10 06:40:15;;;;;;;8.10;7.40;;;;;;;;;;5039065;28;20080;-80
2023/09/10 06:42:43;;;;;;;9.88;7.57;;;;;;;;;;5056382;28;20099;-80
2023/09/10 06:45:11;;;;;;;10.60;7.40;;;;;;;;;;5057088;28;20049;-80
2023/09/10 06:47:38;;;;;;;7.97;7.18;;;;;;;;;;5057757;28;20102;-80
2023/09/10 06:50:05;;;;;;;10.90;7.68;;;;;;;;;;5056675;28;20079;-80
2023/09/10 06:52:33;;;;;;;9.43;6.63;;;;;;;;;;5056757;28;20086;-80
2023/09/10 06:55:02;;;;;;;8.15;7.20;;;;;;;;;;5040503;28;20053;-80
2023/09/10 06:57:30;;;;;;;7.95;7.05;;;;;;;;;;5060540;28;20048;-80
2023/09/10 06:59:58;;;;;;;7.55;6.90;;;;;;;;;;5058468;28;20040;-80
2023/09/10 07:02:25;;;;;;;8.85;7.05;;;;;;;;;;5039040;28;20095;-80
2023/09/10 07:04:53;;;;;;;7.70;6.78;;;;;;;;;;5056642;28;20047;-80
2023/09/10 07:07:20;;;;;;;7.70;7.00;;;;;;;;;;5039120;28;20073;-80
2023/09/10 07:09:47;;;;;;;8.90;6.70;;;;;;;;;;5056239;28;20060;-80
2023/09/10 07:12:15;;;;;;;9.27;7.10;;;;;;;;;;5056422;28;20083;-80
2023/09/10 07:14:44;;;;;;;8.77;6.65;;;;;;;;;;5056433;28;20106;-80
2023/09/10 07:17:11;;;;;;;7.43;6.72;;;;;;;;;;5045926;28;20396;-81
2023/09/10 07:19:40;;;;;;;7.65;6.90;;;;;;;;;;5043164;28;20408;-81
2023/09/10 07:22:07;;;;;;;7.38;6.63;;;;;;;;;;5060303;28;20048;-81
2023/09/10 07:24:35;;;;;;;8.57;7.57;;;;;;;;;;5044072;28;20049;-81
2023/09/10 07:27:02;;;;;;;8.82;6.72;;;;;;;;;;5043712;28;20114;-81
2023/09/10 07:29:30;;;;;;;7.28;6.55;;;;;;;;;;5061486;28;20135;-81
2023/09/10 07:31:58;;;;;;;6.32;5.82;;;;;;;;;;5043788;28;20077;-80
2023/09/10 07:34:25;;;;;;;7.10;6.45;;;;;;;;;;5043039;28;20048;-81
2023/09/10 07:36:52;;;;;;;8.05;6.30;;;;;;;;;;5042964;28;20045;-81
2023/09/10 07:39:20;;;;;;;9.88;6.80;;;;;;;;;;5043352;28;20052;-81
2023/09/10 07:41:47;;;;;;;7.32;6.40;;;;;;;;;;5041909;28;20041;-81
2023/09/10 07:44:14;;;;;;;7.75;6.75;;;;;;;;;;5044130;28;20103;-81
2023/09/10 07:46:41;;;;;;;7.05;6.35;;;;;;;;;;5041713;28;20048;-81
2023/09/10 07:49:09;;;;;;;7.53;6.10;;;;;;;;;;5059973;28;20041;-81
2023/09/10 07:51:36;;;;;;;6.88;6.15;;;;;;;;;;5040697;28;20048;-81
2023/09/10 07:54:03;;;;;;;9.80;5.75;;;;;;;;;;5042301;28;20491;-81
2023/09/10 07:56:31;;;;;;;7.97;7.05;;;;;;;;;;5042277;28;20045;-77
2023/09/10 07:58:58;;;;;;;7.07;6.47;;;;;;;;;;5059822;28;20040;-79
2023/09/10 08:01:25;;;;;;;7.68;6.50;;;;;;;;;;5040374;28;20067;-79
2023/09/10 08:03:53;;;;;;;13.40;11.20;;;;;;;;;;5060246;28;20080;-79
2023/09/10 08:06:20;;;;;;;7.60;6.80;;;;;;;;;;5043044;28;20049;-79
2023/09/10 08:08:47;;;;;;;6.93;6.32;;;;;;;;;;5061303;28;20045;-79
2023/09/10 08:11:15;;;;;;;6.65;5.97;;;;;;;;;;5041600;28;20111;-80
2023/09/10 08:13:42;;;;;;;8.93;7.53;;;;;;;;;;5059504;28;20484;-81
2023/09/10 08:16:13;;;;;;;11.55;8.90;;;;;;;;;;5059508;28;20071;-81
2023/09/10 08:18:41;;;;;;;7.53;6.70;;;;;;;;;;5040844;28;20067;-81
2023/09/10 08:21:09;;;;;;;7.15;6.40;;;;;;;;;;5041379;28;20049;-81
2023/09/10 08:23:36;;;;;;;8.77;5.78;;;;;;;;;;5058621;28;20400;-80
2023/09/10 08:26:03;;;;;;;7.30;6.70;;;;;;;;;;5039345;28;20045;-81
2023/09/10 08:28:30;;;;;;;6.68;6.10;;;;;;;;;;5054520;28;20053;-82
2023/09/10 08:30:58;;;;;;;6.63;5.13;;;;;;;;;;5036181;28;20088;-80
2023/09/10 08:33:25;;;;;;;4.57;4.28;;;;;;;;;;5038009;28;20055;-80
2023/09/10 08:35:54;;;;;;;8.05;5.20;;;;;;;;;;5040589;28;20049;-81
2023/09/10 08:38:22;;;;;;;5.00;4.60;;;;;;;;;;5041376;28;20491;-81
2023/09/10 08:41:03;;;;;;;4.82;4.53;;;;;;;;;;5048997;28;20075;-82
2023/09/10 08:43:33;;;;;;;4.78;4.38;;;;;;;;;;5050807;28;20094;-82
2023/09/10 08:46:00;;;;;;;4.93;4.47;;;;;;;;;;5048309;28;20083;-82
2023/09/10 08:48:28;;;;;;;4.38;3.97;;;;;;;;;;5049673;28;20049;-82
2023/09/10 08:50:56;;;;;;;4.97;4.43;;;;;;;;;;5047096;28;20499;-82
2023/09/10 08:53:23;;;;;;;7.60;4.32;;;;;;;;;;5047174;28;20079;-82
2023/09/10 08:55:51;;;;;;;4.47;4.10;;;;;;;;;;5046709;28;20108;-82
2023/09/10 08:58:20;;;;;;;5.07;4.50;;;;;;;;;;5046170;28;20057;-82
2023/09/10 09:00:49;;;;;;;4.00;3.72;;;;;;;;;;5046629;28;20049;-81
2023/09/10 09:03:17;;;;;;;4.88;4.38;;;;;;;;;;5044740;28;20041;-80
2023/09/10 09:05:47;;;;;;;4.95;4.43;;;;;;;;;;5063100;28;20132;-82
2023/09/10 09:08:19;;;;;;;4.72;4.43;;;;;;;;;;5064111;28;20106;-81
2023/09/10 09:10:46;;;;;;;6.68;4.53;;;;;;;;;;5064352;28;20427;-82
2023/09/10 09:13:15;;;;;;;5.05;4.65;;;;;;;;;;5045588;28;20052;-81
2023/09/10 09:15:42;;;;;;;5.70;4.45;;;;;;;;;;5044729;28;20112;-82
2023/09/10 09:18:13;;;;;;;4.85;4.40;;;;;;;;;;5045475;28;20132;-82
2023/09/10 09:20:44;;;;;;;5.35;4.13;;;;;;;;;;5045125;28;20048;-81
2023/09/10 09:23:21;;;;;;;4.13;3.85;;;;;;;;;;5045904;28;20052;-82
2023/09/10 09:25:48;;;;;;;4.28;3.88;;;;;;;;;;5063313;28;20102;-82
2023/09/10 09:28:16;;;;;;;4.53;4.10;;;;;;;;;;5064858;28;20128;-80
2023/09/10 09:30:43;;;;;;;4.60;3.88;;;;;;;;;;5062176;28;20053;-81
2023/09/10 09:33:11;;;;;;;6.82;4.40;;;;;;;;;;5044128;28;20086;-83
2023/09/10 09:35:38;;;;;;;4.70;3.78;;;;;;;;;;5063211;28;20048;-82
2023/09/10 09:38:06;;;;;;;3.78;3.50;;;;;;;;;;5061749;28;20045;-82
2023/09/10 09:40:35;;;;;;;4.15;3.85;;;;;;;;;;5043934;28;20045;-81
2023/09/10 09:43:02;;;;;;;3.72;3.42;;;;;;;;;;5085650;22;20107;-83
2023/09/10 09:45:46;;;;;;;5.28;3.92;;;;;;;;;;5034613;28;20072;-82
2023/09/10 09:48:13;;;;;;;3.42;3.13;;;;;;;;;;5017376;28;20056;-83
2023/09/10 09:50:41;;;;;;;4.65;3.97;;;;;;;;;;5018565;28;20052;-84
2023/09/10 09:53:08;;;;;;;3.92;3.72;;;;;;;;;;5019690;28;20045;-83
2023/09/10 09:55:35;;;;;;;3.08;2.88;;;;;;;;;;5021773;28;20137;-83
2023/09/10 09:58:05;;;;;;;3.75;3.42;;;;;;;;;;5037734;28;20045;-83
2023/09/10 10:00:37;;;;;;;3.20;3.00;;;;;;;;;;5018745;28;20061;-84
2023/09/10 10:03:06;;;;;;;3.30;3.00;;;;;;;;;;5018516;28;20072;-84
2023/09/10 10:05:34;;;;;;;3.97;3.30;;;;;;;;;;5018578;28;20081;-84
2023/09/10 10:08:02;;;;;;;3.30;3.00;;;;;;;;;;5016515;28;20437;-83
2023/09/10 10:10:30;;;;;;;3.80;3.13;;;;;;;;;;5034145;28;20046;-83
2023/09/10 10:12:57;;;;;;;5.40;3.30;;;;;;;;;;5016731;28;20045;-84
2023/09/10 10:15:24;;;;;;;3.58;3.38;;;;;;;;;;5016525;28;20092;-83
2023/09/10 10:17:53;;;;;;;3.58;3.28;;;;;;;;;;5016556;28;20059;-83
2023/09/10 10:20:21;;;;;;;3.50;3.30;;;;;;;;;;5016667;28;20103;-84
2023/09/10 10:22:49;;;;;;;4.82;3.28;;;;;;;;;;5016632;28;20135;-85
2023/09/10 10:25:16;;;;;;;6.43;3.60;;;;;;;;;;5034076;28;20049;-82
2023/09/10 10:27:44;;;;;;;4.63;3.60;;;;;;;;;;5016224;28;20099;-84
2023/09/10 10:30:11;;;;;;;5.75;3.10;;;;;;;;;;5016229;28;20080;-84
2023/09/10 10:32:40;;;;;;;3.70;3.40;;;;;;;;;;5016442;28;20056;-83
2023/09/10 10:35:09;;;;;;;3.30;3.08;;;;;;;;;;5016437;28;20045;-83
2023/09/10 10:37:37;;;;;;;4.03;2.97;;;;;;;;;;5015973;28;20049;-86
2023/09/10 10:40:08;;;;;;;6.65;3.90;;;;;;;;;;5016238;28;20457;-83
2023/09/10 10:42:39;;;;;;;7.50;3.35;;;;;;;;;;5015942;28;20057;-82
2023/09/10 10:45:07;;;;;;;5.22;3.75;;;;;;;;;;5015986;28;20053;-82
2023/09/10 10:47:40;;;;;;;4.85;3.45;;;;;;;;;;5016132;28;20041;-86
2023/09/10 10:50:12;;;;;;;4.00;3.70;;;;;;;;;;5015103;28;20056;-82
2023/09/10 10:52:55;;;;;;;3.25;3.05;;;;;;;;;;5016195;28;20041;-83
2023/09/10 10:55:25;;;;;;;3.95;3.75;;;;;;;;;;5033440;28;20065;-84
2023/09/10 10:57:55;;;;;;;3.47;3.17;;;;;;;;;;5033188;28;20099;-84
2023/09/10 11:00:23;;;;;;;4.63;3.88;;;;;;;;;;5015994;28;20054;-83
2023/09/10 11:03:08;;;;;;;4.85;3.97;;;;;;;;;;5015773;28;20064;-81
2023/09/10 11:05:53;;;;;;;4.32;3.92;;;;;;;;;;5033114;28;20049;-83
2023/09/10 11:08:30;;;;;;;4.72;3.58;;;;;;;;;;5015619;28;20049;-82
2023/09/10 11:10:58;;;;;;;4.75;3.90;;;;;;;;;;5016128;28;20053;-83
2023/09/10 11:13:25;;;;;;;4.10;3.80;;;;;;;;;;5015648;28;20422;-84
2023/09/10 11:16:05;;;;;;;4.28;3.90;;;;;;;;;;5015557;28;20056;-82
2023/09/10 11:18:35;;;;;;;4.20;3.80;;;;;;;;;;5033531;28;20049;-83
2023/09/10 11:21:03;;;;;;;4.55;4.10;;;;;;;;;;5033668;28;20125;-82
2023/09/10 11:23:31;;;;;;;5.10;4.40;;;;;;;;;;5032634;28;20163;-83
2023/09/10 11:26:14;;;;;;;4.40;4.00;;;;;;;;;;5015816;28;20049;-82
2023/09/10 11:28:52;;;;;;;4.35;3.95;;;;;;;;;;5016004;28;20121;-85
2023/09/10 11:31:38;;;;;;;6.43;4.10;;;;;;;;;;5034695;28;20042;-83
2023/09/10 11:34:17;;;;;;;4.82;3.80;;;;;;;;;;5016924;28;20491;-83
2023/09/10 11:36:46;;;;;;;4.38;4.00;;;;;;;;;;5016953;28;20509;-83
2023/09/10 11:39:14;;;;;;;5.28;4.00;;;;;;;;;;5016772;28;20049;-83
2023/09/10 11:41:45;;;;;;;4.45;4.03;;;;;;;;;;5017299;28;20478;-83
2023/09/10 11:44:13;;;;;;;4.15;3.70;;;;;;;;;;5034598;28;20065;-85
2023/09/10 11:46:40;;;;;;;3.88;3.60;;;;;;;;;;5016725;28;20041;-83
2023/09/10 11:49:13;;;;;;;5.22;3.83;;;;;;;;;;5018627;28;20083;-84
2023/09/10 11:51:48;;;;;;;3.60;3.40;;;;;;;;;;5017542;28;20092;-84
2023/09/10 11:54:17;;;;;;;5.15;4.03;;;;;;;;;;5017543;28;20059;-84
2023/09/10 11:56:48;;;;;;;5.57;3.50;;;;;;;;;;5017048;28;20057;-84
2023/09/10 11:59:19;;;;;;;3.97;3.70;;;;;;;;;;5015960;28;20103;-83
2023/09/10 12:01:47;;;;;;;3.83;3.63;;;;;;;;;;5016471;28;20096;-83
2023/09/10 12:04:16;;;;;;;4.00;3.80;;;;;;;;;;5018043;28;20056;-84
2023/09/10 12:06:44;;;;;;;4.47;4.10;;;;;;;;;;5018979;28;20503;-83
2023/09/10 12:09:13;;;;;;;4.20;3.78;;;;;;;;;;5021848;28;20049;-84
2023/09/10 12:11:46;;;;;;;4.53;4.10;;;;;;;;;;5020806;28;20052;-83
2023/09/10 12:14:17;;;;;;;4.65;3.80;;;;;;;;;;5022537;28;20083;-83
2023/09/10 12:16:46;;;;;;;4.22;3.92;;;;;;;;;;5022124;28;20075;-82
2023/09/10 12:19:13;;;;;;;4.05;3.50;;;;;;;;;;5019548;28;20053;-82
2023/09/10 12:21:42;;;;;;;6.07;3.65;;;;;;;;;;5020163;28;20052;-83
2023/09/10 12:24:10;;;;;;;4.55;3.97;;;;;;;;;;5036471;28;20057;-84
2023/09/10 12:26:38;;;;;;;3.95;3.65;;;;;;;;;;5018220;28;20049;-83
2023/09/10 12:29:05;;;;;;;4.35;3.60;;;;;;;;;;5018833;28;20103;-82
2023/09/10 12:31:33;;;;;;;3.60;3.40;;;;;;;;;;5035929;28;20053;-83
2023/09/10 12:34:00;;;;;;;4.20;3.80;;;;;;;;;;5018627;28;20418;-83
2023/09/10 12:36:28;;;;;;;4.40;4.00;;;;;;;;;;5018914;28;20076;-83
2023/09/10 12:38:55;;;;;;;5.15;3.67;;;;;;;;;;5019012;28;20099;-83
2023/09/10 12:41:22;;;;;;;3.53;3.33;;;;;;;;;;5018676;28;20045;-82
2023/09/10 12:43:50;;;;;;;4.45;4.10;;;;;;;;;;5036304;28;20076;-83
2023/09/10 12:46:17;;;;;;;4.30;3.90;;;;;;;;;;5018555;28;20099;-81
2023/09/10 12:48:45;;;;;;;5.25;3.95;;;;;;;;;;5018505;28;20546;-83
2023/09/10 12:51:13;;;;;;;4.07;3.70;;;;;;;;;;5018739;28;20525;-83
2023/09/10 12:53:40;;;;;;;4.53;4.10;;;;;;;;;;5018540;28;20045;-83
2023/09/10 12:56:08;;;;;;;5.35;3.78;;;;;;;;;;5018308;28;20445;-82
2023/09/10 12:58:36;;;;;;;4.88;3.95;;;;;;;;;;5018599;28;20049;-83
2023/09/10 13:01:03;;;;;;;4.60;3.70;;;;;;;;;;5018813;28;20107;-85
2023/09/10 13:03:31;;;;;;;3.97;3.53;;;;;;;;;;5035891;28;20059;-84
2023/09/10 13:05:58;;;;;;;3.58;3.35;;;;;;;;;;5018364;28;20050;-84
2023/09/10 13:08:26;;;;;;;3.97;3.70;;;;;;;;;;5018033;28;20457;-85
2023/09/10 13:10:54;;;;;;;5.85;3.80;;;;;;;;;;5018107;28;20088;-82
2023/09/10 13:13:21;;;;;;;6.88;4.05;;;;;;;;;;5036536;28;20049;-83
2023/09/10 13:15:49;;;;;;;4.95;3.75;;;;;;;;;;5019034;28;20054;-82
2023/09/10 13:18:17;;;;;;;4.93;3.83;;;;;;;;;;5036115;28;20494;-83
2023/09/10 13:20:45;;;;;;;3.78;3.58;;;;;;;;;;5038634;28;20053;-82
2023/09/10 13:23:12;;;;;;;6.32;4.10;;;;;;;;;;5018933;28;20053;-82
2023/09/10 13:25:39;;;;;;;7.68;4.18;;;;;;;;;;5019526;28;20489;-82
2023/09/10 13:28:09;;;;;;;5.10;4.20;;;;;;;;;;5036316;28;20399;-82
2023/09/10 13:30:38;;;;;;;5.30;4.35;;;;;;;;;;5018604;28;20104;-82
2023/09/10 13:33:10;;;;;;;4.50;4.20;;;;;;;;;;5019370;28;20045;-80
2023/09/10 13:35:40;;;;;;;5.05;3.85;;;;;;;;;;5020014;28;20560;-83
2023/09/10 13:38:08;;;;;;;4.80;4.40;;;;;;;;;;5020995;28;20049;-83
2023/09/10 13:40:36;;;;;;;4.40;4.10;;;;;;;;;;5020160;28;20414;-81
2023/09/10 13:43:03;;;;;;;4.78;4.32;;;;;;;;;;5019975;28;20058;-83
2023/09/10 13:45:31;;;;;;;4.57;4.03;;;;;;;;;;5019560;28;20049;-84
2023/09/10 13:47:58;;;;;;;4.50;4.10;;;;;;;;;;5019239;28;20042;-83
2023/09/10 13:50:26;;;;;;;4.53;4.07;;;;;;;;;;5018852;28;20049;-83
2023/09/10 13:52:54;;;;;;;6.32;4.35;;;;;;;;;;5020719;28;20049;-83
2023/09/10 13:55:21;;;;;;;5.10;3.85;;;;;;;;;;5021372;28;20567;-81
2023/09/10 13:57:49;;;;;;;8.00;4.10;;;;;;;;;;5020960;28;20053;-83
2023/09/10 14:00:16;;;;;;;4.43;3.58;;;;;;;;;;5019274;28;20096;-82
2023/09/10 14:02:43;;;;;;;4.32;3.83;;;;;;;;;;5018962;28;20046;-82
2023/09/10 14:05:11;;;;;;;5.53;4.07;;;;;;;;;;5020481;28;20061;-81
2023/09/10 14:07:38;;;;;;;4.47;4.18;;;;;;;;;;5020928;28;20073;-83
2023/09/10 14:10:06;;;;;;;4.97;4.38;;;;;;;;;;5020474;28;20495;-81
2023/09/10 14:12:33;;;;;;;4.18;3.88;;;;;;;;;;5020192;28;20050;-84
2023/09/10 14:15:00;;;;;;;4.55;4.25;;;;;;;;;;5020131;28;20068;-84
2023/09/10 14:17:28;;;;;;;4.85;4.40;;;;;;;;;;5022553;28;20050;-82
2023/09/10 14:19:55;;;;;;;4.30;4.00;;;;;;;;;;5020504;28;20053;-85
2023/09/10 14:22:23;;;;;;;4.70;4.28;;;;;;;;;;5019479;28;20065;-84
2023/09/10 14:24:51;;;;;;;6.35;4.57;;;;;;;;;;5022538;28;20102;-85
2023/09/10 14:27:19;;;;;;;4.32;4.03;;;;;;;;;;5020564;28;20041;-84
2023/09/10 14:29:52;;;;;;;4.30;3.90;;;;;;;;;;5017174;28;20046;-84
2023/09/10 14:32:20;;;;;;;3.85;3.65;;;;;;;;;;5016909;28;20224;-83
2023/09/10 14:34:47;;;;;;;4.82;4.40;;;;;;;;;;5035032;28;20045;-82
2023/09/10 14:37:15;;;;;;;4.55;3.67;;;;;;;;;;5017155;28;20514;-84
2023/09/10 14:43:04;;;;;;;4.95;4.07;;;;;;;;;;5034988;28;20040;-83
2023/09/10 14:45:36;;;;;;;4.47;4.07;;;;;;;;;;5018856;28;20050;-84